Skip Navigation Links
NOAA logo - Click to go to the NOAA homepage
NOAA's National Weather Service
Alaska Aviation Weather Unit
  NWS logo - Click to go to the NWS homepage
Left Navbar Graphic     17 AKDT = 01 GMT

   
NOAA is celebrating 200 years of science, service, and stewardship. Visit the NOAA 200th celebration Web site to learn more.
USA.gov is the U.S. Government's official Web portal to all Federal, state and local government Web resources and services.
Facebook
NWS on Facebook

Important Change Regarding the AAWU Web Presence

 

Over the last several months, the AAWU has been working to navigate its webpages to a nationally supported server. Security, as well as other needs, have necessitated the change.  In the process, we have made an effort to enhance the functionality of our website, as well as some of our products. As of June 27, 2017, aawu.arh.noaa.gov will be discontinued. The new AAWU web address is weather.gov/aawu. It is now live and will run in-parallel with the old site until it is discontinued. Please send any feedback or questions regarding the new webpages to nws.ar.aawu.webauthors@noaa.gov.  Thank you for your patience during this time of transition.
AAWU Home :: Display TAF Add Bookmark
SPECI PAMB 251954Z AUTO 16012KT 10SM BKN021 14/09 A2999 RMK AO2 $=

METAR PAMB 251956Z AUTO 15009KT 10SM BKN021 14/09 A2999 RMK AO2 SLP161
     T01390089 $=

METAR PAMB 252056Z AUTO 14009KT 10SM SCT019 14/09 A2998 RMK AO2 SLP157
     T01390089 55004 $=

METAR PAMB 252156Z AUTO 16014KT 10SM FEW014 13/08 A2996 RMK AO2
 SLP153 T01280083 $=

METAR PAMB 252256Z AUTO 17015G20KT 10SM FEW020 13/07 A2995 RMK AO2
     SLP148 T01330072 $=

METAR PAMB 252356Z AUTO 16012G19KT 10SM FEW028 13/06 A2994 RMK AO2
     SLP144 T01280061 10144 20122 58014 $=


NOAA's National Weather Service
Alaska Aviation Weather Unit
6930 Sand Lake Road
Anchorage, AK 99502-1845
Disclaimer
Credits
Glossary
Privacy Policy
About Us
Career Opportunities
Contact AAWU Internet Services Site last modified: April, 17th 2012